createdAt,value
2023-04-15T00:00:45.890Z,2253.00
2023-04-15T00:01:45.951Z,2283.00
2023-04-15T00:02:45.967Z,2258.00
2023-04-15T00:03:45.913Z,2245.00
2023-04-15T00:04:45.822Z,2259.00
2023-04-15T00:05:45.792Z,2264.00
2023-04-15T00:06:45.745Z,2273.00
2023-04-15T00:07:45.744Z,2243.00
2023-04-15T00:08:45.762Z,2249.00
2023-04-15T00:09:45.692Z,2258.00
2023-04-15T00:10:45.688Z,2245.00
2023-04-15T00:11:45.676Z,2247.00
2023-04-15T00:12:45.661Z,2252.00
2023-04-15T00:13:45.636Z,2238.00
2023-04-15T00:14:45.623Z,2256.00
2023-04-15T00:15:45.597Z,2230.00
2023-04-15T00:16:45.643Z,2239.00
2023-04-15T00:17:45.604Z,2232.00
2023-04-15T00:18:45.575Z,2236.00
2023-04-15T00:19:45.526Z,2228.00
2023-04-15T00:20:45.507Z,2222.00
2023-04-15T00:21:45.490Z,2227.00
2023-04-15T00:22:45.476Z,2252.00
2023-04-15T00:23:45.480Z,2225.00
2023-04-15T00:24:45.452Z,2225.00
2023-04-15T00:25:45.417Z,2230.00
2023-04-15T00:26:45.395Z,2210.00
2023-04-15T00:27:45.392Z,2212.00
2023-04-15T00:28:45.366Z,2219.00
2023-04-15T00:29:45.359Z,2200.00
2023-04-15T00:30:45.359Z,2211.00
2023-04-15T00:31:45.327Z,2217.00
2023-04-15T00:32:45.333Z,2199.00
2023-04-15T00:33:45.304Z,2204.00
2023-04-15T00:34:45.266Z,2219.00
2023-04-15T00:35:45.264Z,2218.00
2023-04-15T00:36:45.235Z,2218.00
2023-04-15T00:37:46.192Z,2217.00
2023-04-15T00:38:45.262Z,2214.00
2023-04-15T00:39:45.186Z,2218.00
2023-04-15T00:40:45.176Z,2227.00
2023-04-15T00:41:45.158Z,2218.00
2023-04-15T00:42:45.135Z,2223.00
2023-04-15T00:43:45.130Z,2190.00
2023-04-15T00:44:45.098Z,2196.00
2023-04-15T00:45:45.103Z,2197.00
2023-04-15T00:46:45.062Z,2206.00
2023-04-15T00:47:45.082Z,2199.00
2023-04-15T00:48:45.039Z,2201.00
2023-04-15T00:49:45.032Z,2187.00
2023-04-15T00:50:45.012Z,2184.00
2023-04-15T00:51:44.979Z,2181.00
2023-04-15T00:52:44.976Z,2174.00
2023-04-15T00:53:44.951Z,2179.00
2023-04-15T00:54:44.930Z,2203.00
2023-04-15T00:55:44.919Z,2174.00
2023-04-15T00:56:44.888Z,2178.00
2023-04-15T00:57:44.873Z,2176.00
2023-04-15T00:58:44.866Z,2191.00
2023-04-15T00:59:44.845Z,2167.00
2023-04-15T01:00:44.827Z,2159.00
2023-04-15T01:01:44.969Z,2174.00
2023-04-15T01:02:44.909Z,2188.00
2023-04-15T01:03:45.092Z,2161.00
2023-04-15T01:04:44.786Z,2176.00
2023-04-15T01:05:44.774Z,2168.00
2023-04-15T01:06:44.749Z,2157.00
2023-04-15T01:07:44.757Z,2166.00
2023-04-15T01:08:44.758Z,2155.00
2023-04-15T01:09:44.727Z,2151.00
2023-04-15T01:10:44.716Z,2152.00
2023-04-15T01:11:44.697Z,2178.00
2023-04-15T01:12:44.696Z,2149.00
2023-04-15T01:13:44.686Z,2151.00
2023-04-15T01:14:44.659Z,2152.00
2023-04-15T01:15:44.655Z,2158.00
2023-04-15T01:16:44.636Z,2167.00
2023-04-15T01:17:44.666Z,2173.00
2023-04-15T01:18:44.643Z,2152.00
2023-04-15T01:19:44.623Z,2153.00
2023-04-15T01:20:44.632Z,2158.00
2023-04-15T01:21:44.611Z,2164.00
2023-04-15T01:22:44.594Z,2150.00
2023-04-15T01:23:44.577Z,2158.00
2023-04-15T01:24:44.564Z,2148.00
2023-04-15T01:25:44.563Z,2175.00
2023-04-15T01:26:44.683Z,2158.00
2023-04-15T01:27:44.544Z,2146.00
2023-04-15T01:28:44.544Z,2155.00
2023-04-15T01:29:44.520Z,2140.00
2023-04-15T01:30:44.517Z,2133.00
2023-04-15T01:31:44.586Z,2149.00
2023-04-15T01:32:44.538Z,2136.00
2023-04-15T01:33:44.494Z,2127.00
2023-04-15T01:34:44.500Z,2159.00
2023-04-15T01:35:44.470Z,2135.00
2023-04-15T01:36:44.478Z,2132.00
2023-04-15T01:37:44.438Z,2140.00
2023-04-15T01:38:44.427Z,2129.00
2023-04-15T01:39:44.429Z,2130.00
2023-04-15T01:40:44.416Z,2143.00
2023-04-15T01:41:44.404Z,2136.00
2023-04-15T01:42:44.386Z,2133.00
2023-04-15T01:43:44.370Z,2134.00
2023-04-15T01:44:44.367Z,2127.00
2023-04-15T01:45:44.352Z,2136.00
2023-04-15T01:46:44.387Z,2116.00
2023-04-15T01:47:44.356Z,2129.00
2023-04-15T01:48:44.303Z,2121.00
2023-04-15T01:49:44.292Z,2109.00
2023-04-15T01:50:44.285Z,2116.00
2023-04-15T01:51:44.273Z,2143.00
2023-04-15T01:52:44.263Z,2091.00
2023-04-15T01:53:44.238Z,2108.00
2023-04-15T01:54:44.254Z,2129.00
2023-04-15T01:55:44.230Z,2136.00
2023-04-15T01:56:44.215Z,2100.00
2023-04-15T01:57:44.194Z,2096.00
2023-04-15T01:58:44.182Z,2126.00
2023-04-15T01:59:44.191Z,2089.00
2023-04-15T02:00:44.223Z,2097.00
2023-04-15T02:01:44.190Z,2110.00
2023-04-15T02:02:44.288Z,2103.00
2023-04-15T02:03:44.268Z,2104.00
2023-04-15T02:04:44.136Z,2110.00
2023-04-15T02:05:44.135Z,2091.00
2023-04-15T02:06:44.109Z,2102.00
2023-04-15T02:07:44.118Z,2104.00
2023-04-15T02:08:44.094Z,2090.00
2023-04-15T02:09:44.087Z,2082.00
2023-04-15T02:10:44.072Z,2077.00
2023-04-15T02:11:44.056Z,2061.00
2023-04-15T02:12:44.055Z,2066.00
2023-04-15T02:13:44.029Z,2102.00
2023-04-15T02:14:44.032Z,2076.00
2023-04-15T02:15:44.045Z,2067.00
2023-04-15T02:16:44.028Z,2089.00
2023-04-15T02:17:44.040Z,2090.00
2023-04-15T02:18:44.005Z,2073.00
2023-04-15T02:19:43.998Z,2066.00
2023-04-15T02:20:43.998Z,2089.00
2023-04-15T02:21:43.984Z,2060.00
2023-04-15T02:22:43.964Z,2060.00
2023-04-15T02:23:44.020Z,2061.00
2023-04-15T02:24:43.948Z,2066.00
2023-04-15T02:25:53.346Z,2082.00
2023-04-15T02:26:44.921Z,2082.00
2023-04-15T02:27:43.910Z,2082.00
2023-04-15T02:28:43.878Z,2075.00
2023-04-15T02:29:43.867Z,2089.00
2023-04-15T02:30:43.843Z,2090.00
2023-04-15T02:31:43.869Z,2059.00
2023-04-15T02:32:43.863Z,2060.00
2023-04-15T02:33:43.809Z,2061.00
2023-04-15T02:34:43.802Z,2059.00
2023-04-15T02:35:43.787Z,2078.00
2023-04-15T02:36:43.776Z,2073.00
2023-04-15T02:37:44.061Z,2078.00
2023-04-15T02:38:43.765Z,2057.00
2023-04-15T02:39:43.766Z,2044.00
2023-04-15T02:40:43.729Z,2075.00
2023-04-15T02:41:43.760Z,2039.00
2023-04-15T02:42:43.704Z,2061.00
2023-04-15T02:43:43.689Z,2049.00
2023-04-15T02:44:43.688Z,1941.00
2023-04-15T02:45:43.749Z,1910.00
2023-04-15T02:46:43.663Z,1908.00
2023-04-15T02:47:43.650Z,1759.00
2023-04-15T02:48:43.634Z,1681.00
2023-04-15T02:49:43.619Z,1620.00
2023-04-15T02:50:43.607Z,1598.00
2023-04-15T02:51:43.601Z,1566.00
2023-04-15T02:52:43.586Z,1507.00
2023-04-15T02:53:43.592Z,1440.00
2023-04-15T02:54:43.570Z,1428.00
2023-04-15T02:55:43.541Z,1361.00
2023-04-15T02:56:43.524Z,1319.00
2023-04-15T02:57:43.517Z,1287.00
2023-04-15T02:58:43.523Z,1271.00
2023-04-15T02:59:43.495Z,1242.00
2023-04-15T03:00:43.493Z,1190.00
2023-04-15T03:01:43.497Z,1208.00
2023-04-15T03:02:43.731Z,1134.00
2023-04-15T03:03:43.584Z,1135.00
2023-04-15T03:04:43.464Z,1094.00
2023-04-15T03:05:43.453Z,1076.00
2023-04-15T03:06:43.431Z,1070.00
2023-04-15T03:07:43.521Z,1043.00
2023-04-15T03:08:43.432Z,1049.00
2023-04-15T03:09:43.438Z,1052.00
2023-04-15T03:10:43.488Z,1024.00
2023-04-15T03:11:43.508Z,1004.00
2023-04-15T03:12:43.541Z,995.00
2023-04-15T03:13:43.583Z,980.00
2023-04-15T03:14:43.634Z,970.00
2023-04-15T03:15:43.709Z,954.00
2023-04-15T03:16:43.745Z,950.00
2023-04-15T03:17:43.812Z,938.00
2023-04-15T03:18:43.846Z,947.00
2023-04-15T03:19:43.885Z,936.00
2023-04-15T03:20:44.020Z,911.00
2023-04-15T03:21:44.007Z,910.00
2023-04-15T03:22:44.073Z,893.00
2023-04-15T03:23:44.118Z,880.00
2023-04-15T03:24:44.224Z,891.00
2023-04-15T03:25:44.212Z,867.00
2023-04-15T03:26:44.264Z,872.00
2023-04-15T03:27:44.388Z,853.00
2023-04-15T03:28:44.381Z,836.00
2023-04-15T03:29:44.445Z,840.00
2023-04-15T03:30:44.500Z,816.00
2023-04-15T03:31:44.556Z,812.00
2023-04-15T03:32:44.641Z,787.00
2023-04-15T03:33:44.675Z,786.00
2023-04-15T03:34:44.729Z,778.00
2023-04-15T03:35:44.830Z,785.00
2023-04-15T03:36:44.860Z,788.00
2023-04-15T03:37:44.924Z,798.00
2023-04-15T03:38:44.960Z,790.00
2023-04-15T03:39:45.014Z,772.00
2023-04-15T03:40:45.063Z,769.00
2023-04-15T03:41:45.120Z,786.00
2023-04-15T03:42:45.144Z,782.00
2023-04-15T03:43:45.169Z,791.00
2023-04-15T03:44:45.181Z,776.00
2023-04-15T03:45:45.223Z,774.00
2023-04-15T03:46:45.253Z,775.00
2023-04-15T03:47:45.223Z,774.00
2023-04-15T03:48:45.199Z,757.00
2023-04-15T03:49:45.195Z,752.00
2023-04-15T03:50:45.186Z,747.00
2023-04-15T03:51:45.178Z,736.00
2023-04-15T03:52:45.172Z,738.00
2023-04-15T03:53:45.178Z,739.00
2023-04-15T03:54:45.176Z,722.00
2023-04-15T03:55:45.172Z,711.00
2023-04-15T03:56:45.158Z,722.00
2023-04-15T03:57:45.149Z,722.00
2023-04-15T03:58:45.150Z,713.00
2023-04-15T03:59:45.166Z,720.00
2023-04-15T04:00:45.149Z,706.00
2023-04-15T04:01:45.242Z,717.00
2023-04-15T04:02:45.288Z,704.00
2023-04-15T04:03:45.310Z,707.00
2023-04-15T04:04:45.171Z,713.00
2023-04-15T04:05:45.153Z,693.00
2023-04-15T04:06:45.142Z,707.00
2023-04-15T04:07:45.143Z,706.00
2023-04-15T04:08:45.155Z,687.00
2023-04-15T04:09:46.649Z,671.00
2023-04-15T04:10:45.160Z,672.00
2023-04-15T04:11:45.135Z,673.00
2023-04-15T04:12:45.141Z,674.00
2023-04-15T04:13:45.134Z,664.00
2023-04-15T04:14:45.139Z,682.00
2023-04-15T04:15:45.182Z,668.00
2023-04-15T04:16:45.145Z,664.00
2023-04-15T04:17:45.167Z,664.00
2023-04-15T04:18:45.115Z,673.00
2023-04-15T04:19:45.099Z,672.00
2023-04-15T04:20:45.105Z,675.00
2023-04-15T04:21:45.090Z,667.00
2023-04-15T04:22:45.083Z,672.00
2023-04-15T04:23:45.076Z,664.00
2023-04-15T04:24:45.070Z,681.00
2023-04-15T04:25:45.084Z,675.00
2023-04-15T04:26:45.068Z,662.00
2023-04-15T04:27:45.045Z,656.00
2023-04-15T04:28:45.043Z,653.00
2023-04-15T04:29:45.035Z,647.00
2023-04-15T04:30:45.029Z,644.00
2023-04-15T04:31:45.038Z,649.00
2023-04-15T04:32:45.052Z,644.00
2023-04-15T04:33:45.005Z,642.00
2023-04-15T04:34:45.029Z,643.00
2023-04-15T04:35:45.056Z,646.00
2023-04-15T04:36:45.051Z,640.00
2023-04-15T04:37:45.080Z,642.00
2023-04-15T04:38:45.060Z,642.00
2023-04-15T04:39:45.062Z,641.00
2023-04-15T04:40:45.078Z,640.00
2023-04-15T04:41:45.070Z,641.00
2023-04-15T04:42:45.101Z,641.00
2023-04-15T04:43:45.100Z,640.00
2023-04-15T04:44:45.127Z,636.00
2023-04-15T04:45:45.141Z,639.00
2023-04-15T04:46:45.134Z,638.00
2023-04-15T04:47:45.225Z,639.00
2023-04-15T04:48:47.076Z,638.00
2023-04-15T04:49:45.175Z,639.00
2023-04-15T04:50:45.203Z,639.00
2023-04-15T04:51:45.239Z,636.00
2023-04-15T04:52:45.227Z,647.00
2023-04-15T04:53:45.262Z,642.00
2023-04-15T04:54:45.265Z,636.00
2023-04-15T04:55:45.277Z,637.00
2023-04-15T04:56:45.297Z,635.00
2023-04-15T04:57:45.313Z,634.00
2023-04-15T04:58:45.337Z,632.00
2023-04-15T04:59:45.350Z,626.00
2023-04-15T05:00:45.390Z,628.00
2023-04-15T05:01:45.539Z,628.00
2023-04-15T05:02:45.530Z,630.00
2023-04-15T05:03:45.536Z,635.00
2023-04-15T05:04:45.461Z,627.00
2023-04-15T05:05:45.458Z,627.00
2023-04-15T05:06:45.451Z,628.00
2023-04-15T05:07:45.451Z,625.00
2023-04-15T05:08:45.471Z,622.00
2023-04-15T05:09:45.472Z,623.00
2023-04-15T05:10:45.498Z,625.00
2023-04-15T05:11:45.512Z,617.00
2023-04-15T05:12:45.522Z,621.00
2023-04-15T05:13:45.536Z,617.00
2023-04-15T05:14:45.553Z,624.00
2023-04-15T05:15:45.609Z,629.00
2023-04-15T05:16:45.607Z,629.00
2023-04-15T05:17:45.662Z,632.00
2023-04-15T05:18:45.628Z,631.00
2023-04-15T05:19:45.643Z,636.00
2023-04-15T05:20:45.648Z,640.00
2023-04-15T05:21:45.672Z,645.00
2023-04-15T05:22:45.681Z,643.00
2023-04-15T05:23:45.695Z,644.00
2023-04-15T05:24:45.725Z,643.00
2023-04-15T05:25:45.745Z,648.00
2023-04-15T05:26:45.771Z,648.00
2023-04-15T05:27:45.777Z,652.00
2023-04-15T05:28:45.794Z,649.00
2023-04-15T05:29:45.817Z,657.00
2023-04-15T05:30:45.856Z,648.00
2023-04-15T05:31:45.859Z,648.00
2023-04-15T05:32:45.920Z,658.00
2023-04-15T05:33:45.880Z,656.00
2023-04-15T05:34:45.920Z,655.00
2023-04-15T05:35:45.939Z,652.00
2023-04-15T05:36:45.953Z,652.00
2023-04-15T05:37:45.970Z,647.00
2023-04-15T05:38:45.992Z,649.00
2023-04-15T05:39:46.007Z,651.00
2023-04-15T05:40:46.025Z,652.00
2023-04-15T05:41:46.071Z,657.00
2023-04-15T05:42:46.064Z,655.00
2023-04-15T05:43:46.068Z,653.00
2023-04-15T05:44:46.089Z,648.00
2023-04-15T05:45:46.203Z,647.00
2023-04-15T05:46:46.125Z,645.00
2023-04-15T05:49:05.216Z,500.00
2023-04-15T05:50:05.214Z,500.00
2023-04-15T05:51:05.210Z,500.00
2023-04-15T05:52:05.217Z,500.00
2023-04-15T05:53:05.225Z,500.00
2023-04-15T05:54:05.232Z,500.00
2023-04-15T05:55:05.245Z,501.00
2023-04-15T05:56:05.253Z,500.00
2023-04-15T05:57:05.244Z,500.00
2023-04-15T05:58:05.255Z,493.00
2023-04-15T05:59:05.271Z,495.00
2023-04-15T06:00:05.229Z,488.00
2023-04-15T06:01:05.233Z,480.00
2023-04-15T06:02:05.244Z,504.00
2023-04-15T06:03:05.290Z,500.00
2023-04-15T06:04:05.333Z,500.00
2023-04-15T06:05:05.420Z,500.00
2023-04-15T06:06:05.236Z,500.00
2023-04-15T06:07:05.267Z,502.00
2023-04-15T06:08:05.207Z,506.00
2023-04-15T06:09:05.210Z,511.00
2023-04-15T06:10:05.169Z,512.00
2023-04-15T06:11:05.167Z,516.00
2023-04-15T06:12:05.180Z,511.00
2023-04-15T06:13:05.174Z,509.00
2023-04-15T06:14:05.163Z,509.00
2023-04-15T06:15:05.152Z,510.00
2023-04-15T06:16:05.199Z,510.00
2023-04-15T06:17:05.177Z,506.00
2023-04-15T06:18:05.155Z,511.00
2023-04-15T06:19:05.159Z,507.00
2023-04-15T06:20:05.151Z,507.00
2023-04-15T06:21:05.150Z,508.00
2023-04-15T06:22:05.157Z,508.00
2023-04-15T06:23:05.137Z,508.00
2023-04-15T06:24:05.147Z,507.00
2023-04-15T06:25:05.149Z,507.00
2023-04-15T06:26:05.144Z,514.00
2023-04-15T06:27:05.141Z,511.00
2023-04-15T06:28:05.144Z,504.00
2023-04-15T06:29:05.139Z,511.00
2023-04-15T06:30:05.217Z,507.00
2023-04-15T06:31:05.145Z,502.00
2023-04-15T06:32:05.177Z,503.00
2023-04-15T06:33:05.152Z,503.00
2023-04-15T06:34:05.143Z,500.00
2023-04-15T06:35:05.149Z,502.00
2023-04-15T06:36:05.147Z,504.00
2023-04-15T06:37:06.398Z,499.00
2023-04-15T06:38:05.153Z,505.00
2023-04-15T06:39:05.133Z,503.00
2023-04-15T06:40:05.203Z,503.00
2023-04-15T06:41:05.128Z,500.00
2023-04-15T06:42:05.124Z,504.00
2023-04-15T06:43:05.112Z,501.00
2023-04-15T06:44:05.112Z,500.00
2023-04-15T06:45:05.109Z,500.00
2023-04-15T06:46:05.156Z,503.00
2023-04-15T06:47:05.120Z,500.00
2023-04-15T06:48:05.108Z,500.00
2023-04-15T06:49:05.107Z,500.00
2023-04-15T06:50:05.135Z,501.00
2023-04-15T06:51:05.134Z,501.00
2023-04-15T06:52:05.128Z,500.00
2023-04-15T06:53:05.110Z,501.00
2023-04-15T06:54:05.106Z,501.00
2023-04-15T06:55:05.121Z,503.00
2023-04-15T06:56:05.116Z,500.00
2023-04-15T06:57:05.144Z,504.00
2023-04-15T06:58:05.101Z,503.00
2023-04-15T06:59:05.095Z,500.00
2023-04-15T07:00:05.100Z,501.00
2023-04-15T07:01:05.170Z,500.00
2023-04-15T07:02:05.165Z,500.00
2023-04-15T07:03:05.110Z,500.00
2023-04-15T07:04:05.124Z,503.00
2023-04-15T07:05:05.068Z,500.00
2023-04-15T07:06:05.073Z,504.00
2023-04-15T07:07:05.074Z,500.00
2023-04-15T07:08:05.073Z,503.00
2023-04-15T07:09:05.562Z,507.00
2023-04-15T07:10:05.070Z,508.00
2023-04-15T07:11:05.067Z,502.00
2023-04-15T07:12:05.074Z,500.00
2023-04-15T07:13:05.091Z,500.00
2023-04-15T07:14:05.085Z,501.00
2023-04-15T07:15:05.088Z,500.00
2023-04-15T07:16:05.076Z,500.00
2023-04-15T07:17:05.165Z,502.00
2023-04-15T07:18:05.082Z,503.00
2023-04-15T07:19:05.085Z,504.00
2023-04-15T07:20:05.093Z,501.00
2023-04-15T07:21:05.072Z,500.00
2023-04-15T07:22:05.098Z,507.00
2023-04-15T07:23:05.108Z,500.00
2023-04-15T07:24:05.108Z,500.00
2023-04-15T07:25:05.130Z,500.00
2023-04-15T07:26:05.141Z,505.00
2023-04-15T07:27:05.169Z,503.00
2023-04-15T07:28:05.182Z,500.00
2023-04-15T07:29:05.179Z,501.00
2023-04-15T07:30:05.204Z,504.00
2023-04-15T07:31:05.278Z,500.00
2023-04-15T07:32:05.247Z,500.00
2023-04-15T07:33:05.249Z,503.00
2023-04-15T07:34:05.279Z,509.00
2023-04-15T07:35:05.281Z,505.00
2023-04-15T07:36:05.303Z,508.00
2023-04-15T07:37:05.323Z,505.00
2023-04-15T07:38:05.338Z,506.00
2023-04-15T07:39:05.347Z,507.00
2023-04-15T07:40:05.385Z,507.00
2023-04-15T07:41:05.377Z,503.00
2023-04-15T07:42:05.385Z,506.00
2023-04-15T07:43:05.383Z,506.00
2023-04-15T07:44:05.408Z,506.00
2023-04-15T07:45:05.391Z,501.00
2023-04-15T07:46:05.423Z,500.00
2023-04-15T07:47:05.414Z,514.00
2023-04-15T07:48:05.430Z,510.00
2023-04-15T07:49:05.388Z,511.00
2023-04-15T07:50:05.384Z,507.00
2023-04-15T07:51:05.379Z,500.00
2023-04-15T07:52:05.392Z,501.00
2023-04-15T07:53:05.390Z,500.00
2023-04-15T07:54:05.379Z,503.00
2023-04-15T07:55:05.370Z,502.00
2023-04-15T07:56:05.366Z,504.00
2023-04-15T07:57:05.364Z,502.00
2023-04-15T07:58:05.378Z,509.00
2023-04-15T07:59:05.383Z,500.00
2023-04-15T08:00:05.379Z,502.00
2023-04-15T08:01:05.370Z,502.00
2023-04-15T08:02:05.416Z,501.00
2023-04-15T08:03:05.613Z,501.00
2023-04-15T08:04:05.478Z,502.00
2023-04-15T08:05:05.416Z,497.00
2023-04-15T08:06:05.382Z,494.00
2023-04-15T08:07:05.394Z,485.00
2023-04-15T08:08:05.415Z,502.00
2023-04-15T08:09:05.416Z,509.00
2023-04-15T08:10:05.400Z,500.00
2023-04-15T08:11:05.396Z,500.00
2023-04-15T08:12:05.400Z,503.00
2023-04-15T08:13:05.405Z,500.00
2023-04-15T08:14:05.392Z,505.00
2023-04-15T08:15:05.391Z,500.00
2023-04-15T08:16:05.442Z,500.00
2023-04-15T08:17:05.405Z,502.00
2023-04-15T08:18:05.413Z,502.00
2023-04-15T08:19:05.433Z,509.00
2023-04-15T08:20:05.414Z,500.00
2023-04-15T08:21:05.413Z,497.00
2023-04-15T08:22:05.415Z,501.00
2023-04-15T08:23:06.426Z,500.00
2023-04-15T08:24:05.417Z,500.00
2023-04-15T08:25:05.402Z,493.00
2023-04-15T08:26:05.399Z,495.00
2023-04-15T08:27:05.431Z,499.00
2023-04-15T08:28:05.398Z,508.00
2023-04-15T08:29:05.408Z,500.00
2023-04-15T08:30:05.437Z,504.00
2023-04-15T08:31:05.413Z,508.00
2023-04-15T08:32:05.435Z,509.00
2023-04-15T08:33:05.389Z,511.00
2023-04-15T08:34:05.406Z,505.00
2023-04-15T08:35:05.406Z,509.00
2023-04-15T08:36:05.389Z,513.00
2023-04-15T08:37:05.386Z,511.00
2023-04-15T08:38:05.426Z,511.00
2023-04-15T08:39:05.420Z,513.00
2023-04-15T08:40:05.399Z,513.00
2023-04-15T08:41:05.388Z,517.00
2023-04-15T08:42:05.389Z,529.00
2023-04-15T08:43:05.405Z,519.00
2023-04-15T08:44:05.421Z,512.00
2023-04-15T08:45:05.433Z,521.00
2023-04-15T08:46:05.409Z,558.00
2023-04-15T08:47:05.447Z,572.00
2023-04-15T08:48:05.448Z,597.00
2023-04-15T08:49:05.434Z,637.00
2023-04-15T08:50:05.418Z,638.00
2023-04-15T08:51:05.428Z,650.00
2023-04-15T08:52:05.417Z,701.00
2023-04-15T08:53:05.428Z,843.00
2023-04-15T08:54:05.490Z,1047.00
2023-04-15T08:55:05.414Z,1130.00
2023-04-15T08:56:05.440Z,1132.00
2023-04-15T08:57:05.425Z,1147.00
2023-04-15T08:58:05.420Z,1192.00
2023-04-15T08:59:05.416Z,1247.00
2023-04-15T09:00:05.826Z,1371.00
2023-04-15T09:01:05.506Z,1439.00
2023-04-15T09:02:05.401Z,1479.00
2023-04-15T09:03:05.463Z,1480.00
2023-04-15T09:04:05.393Z,1490.00
2023-04-15T09:05:05.359Z,1524.00
2023-04-15T09:06:05.359Z,1586.00
2023-04-15T09:07:05.348Z,1682.00
2023-04-15T09:08:05.424Z,1731.00
2023-04-15T09:09:05.320Z,1782.00
2023-04-15T09:10:05.361Z,1816.00
2023-04-15T09:11:05.293Z,1813.00
2023-04-15T09:12:05.280Z,1883.00
2023-04-15T09:13:05.277Z,1887.00
2023-04-15T09:14:05.284Z,1889.00
2023-04-15T09:15:05.243Z,1899.00
2023-04-15T09:16:05.251Z,1909.00
2023-04-15T09:17:05.282Z,1965.00
2023-04-15T09:18:05.175Z,2033.00
2023-04-15T09:19:05.156Z,2070.00
2023-04-15T09:20:05.144Z,2089.00
2023-04-15T09:21:05.134Z,2132.00
2023-04-15T09:22:05.108Z,2146.00
2023-04-15T09:23:05.101Z,2179.00
2023-04-15T09:24:05.223Z,2160.00
2023-04-15T09:25:05.054Z,2183.00
2023-04-15T09:26:05.012Z,2203.00
2023-04-15T09:27:04.986Z,2243.00
2023-04-15T09:28:04.958Z,2254.00
2023-04-15T09:29:04.939Z,2269.00
2023-04-15T09:30:04.932Z,2294.00
2023-04-15T09:31:05.013Z,2311.00
2023-04-15T09:32:04.880Z,2331.00
2023-04-15T09:33:04.975Z,2350.00
2023-04-15T09:34:04.843Z,2375.00
2023-04-15T09:35:04.829Z,2416.00
2023-04-15T09:36:04.849Z,2404.00
2023-04-15T09:37:04.789Z,2430.00
2023-04-15T09:38:04.848Z,2443.00
2023-04-15T09:39:04.763Z,2474.00
2023-04-15T09:40:04.729Z,2466.00
2023-04-15T09:41:04.710Z,2491.00
2023-04-15T09:42:04.723Z,2496.00
2023-04-15T09:43:04.724Z,2507.00
2023-04-15T09:44:04.784Z,2534.00
2023-04-15T09:45:04.807Z,2527.00
2023-04-15T09:46:04.898Z,2549.00
2023-04-15T09:47:04.964Z,2556.00
2023-04-15T09:48:05.018Z,2581.00
2023-04-15T09:49:05.057Z,2573.00
2023-04-15T09:50:05.106Z,2566.00
2023-04-15T09:51:05.139Z,2585.00
2023-04-15T09:52:06.514Z,2596.00
2023-04-15T09:53:05.223Z,2613.00
2023-04-15T09:54:05.270Z,2613.00
2023-04-15T09:55:05.305Z,2641.00
2023-04-15T09:56:05.350Z,2621.00
2023-04-15T09:57:05.393Z,2647.00
2023-04-15T09:58:05.439Z,2640.00
2023-04-15T09:59:05.479Z,2649.00
2023-04-15T10:00:05.533Z,2665.00
2023-04-15T10:01:05.598Z,2655.00
2023-04-15T10:02:05.625Z,2665.00
2023-04-15T10:03:05.698Z,2658.00
2023-04-15T10:04:06.101Z,2659.00
2023-04-15T10:05:05.719Z,2682.00
2023-04-15T10:06:05.790Z,2684.00
2023-04-15T10:07:05.671Z,2687.00
2023-04-15T10:08:05.658Z,2694.00
2023-04-15T10:09:05.639Z,2700.00
2023-04-15T10:10:05.618Z,2726.00
2023-04-15T10:11:05.618Z,2727.00
2023-04-15T10:12:05.582Z,2720.00
2023-04-15T10:13:05.564Z,2723.00
2023-04-15T10:14:05.574Z,2733.00
2023-04-15T10:15:05.544Z,2734.00
2023-04-15T10:16:05.614Z,2735.00
2023-04-15T10:17:05.526Z,2737.00
2023-04-15T10:18:05.577Z,2744.00
2023-04-15T10:19:05.474Z,2730.00
2023-04-15T10:20:05.565Z,2735.00
2023-04-15T10:21:05.440Z,2745.00
2023-04-15T10:22:05.426Z,2753.00
2023-04-15T10:23:06.365Z,2756.00
2023-04-15T10:24:05.404Z,2761.00
2023-04-15T10:25:05.367Z,2757.00
2023-04-15T10:26:05.362Z,2756.00
2023-04-15T10:27:05.342Z,2780.00
2023-04-15T10:28:05.313Z,2765.00
2023-04-15T10:29:05.295Z,2762.00
2023-04-15T10:30:05.281Z,2770.00
2023-04-15T10:31:05.345Z,2762.00
2023-04-15T10:32:05.309Z,2770.00
2023-04-15T10:33:05.328Z,2762.00
2023-04-15T10:34:05.352Z,2764.00
2023-04-15T10:35:05.353Z,2759.00
2023-04-15T10:36:05.377Z,2771.00
2023-04-15T10:37:05.401Z,2774.00
2023-04-15T10:38:05.429Z,2770.00
2023-04-15T10:39:05.418Z,2777.00
2023-04-15T10:40:05.428Z,2777.00
2023-04-15T10:41:05.441Z,2777.00
2023-04-15T10:42:05.454Z,2776.00
2023-04-15T10:43:05.483Z,2769.00
2023-04-15T10:44:05.696Z,2775.00
2023-04-15T10:45:05.479Z,2773.00
2023-04-15T10:46:05.552Z,2785.00
2023-04-15T10:47:05.542Z,2776.00
2023-04-15T10:48:05.534Z,2775.00
2023-04-15T10:49:05.519Z,2789.00
2023-04-15T10:50:05.505Z,2774.00
2023-04-15T10:51:05.503Z,2784.00
2023-04-15T10:52:05.521Z,2771.00
2023-04-15T10:53:05.661Z,2776.00
2023-04-15T10:54:05.732Z,2781.00
2023-04-15T10:55:05.527Z,2785.00
2023-04-15T10:56:05.531Z,2771.00
2023-04-15T10:57:05.533Z,2775.00
2023-04-15T10:58:05.502Z,2776.00
2023-04-15T10:59:05.511Z,2777.00
2023-04-15T11:00:05.447Z,2779.00
2023-04-15T11:01:05.420Z,2781.00
2023-04-15T11:02:05.538Z,2785.00
2023-04-15T11:03:05.464Z,2788.00
2023-04-15T11:04:05.475Z,2795.00
2023-04-15T11:05:05.348Z,2776.00
2023-04-15T11:06:05.304Z,2774.00
2023-04-15T11:07:05.269Z,2767.00
2023-04-15T11:08:05.232Z,2784.00
2023-04-15T11:09:05.210Z,2768.00
2023-04-15T11:10:05.201Z,2771.00
2023-04-15T11:11:05.179Z,2778.00
2023-04-15T11:12:05.167Z,2762.00
2023-04-15T11:13:05.136Z,2775.00
2023-04-15T11:14:05.180Z,2769.00
2023-04-15T11:15:05.071Z,2782.00
2023-04-15T11:16:05.080Z,2766.00
2023-04-15T11:17:05.018Z,2765.00
2023-04-15T11:18:05.076Z,2765.00
2023-04-15T11:19:05.018Z,2775.00
2023-04-15T11:20:05.007Z,2771.00
2023-04-15T11:21:05.044Z,2762.00
2023-04-15T11:22:05.013Z,2772.00
2023-04-15T11:23:14.495Z,2762.00
2023-04-15T11:24:06.274Z,2764.00
2023-04-15T11:25:04.968Z,2765.00
2023-04-15T11:26:04.941Z,2764.00
2023-04-15T11:27:04.915Z,2766.00
2023-04-15T11:28:04.881Z,2767.00
2023-04-15T11:29:05.038Z,2772.00
2023-04-15T11:30:04.899Z,2772.00
2023-04-15T11:31:04.800Z,2777.00
2023-04-15T11:32:04.782Z,2765.00
2023-04-15T11:33:04.744Z,2772.00
2023-04-15T11:34:04.780Z,2769.00
2023-04-15T11:35:04.730Z,2788.00
2023-04-15T11:36:04.730Z,2767.00
2023-04-15T11:37:04.644Z,2754.00
2023-04-15T11:38:04.610Z,2773.00
2023-04-15T11:39:04.588Z,2767.00
2023-04-15T11:40:04.585Z,2761.00
2023-04-15T11:41:04.549Z,2783.00
2023-04-15T11:42:04.552Z,2754.00
2023-04-15T11:43:04.504Z,2759.00
2023-04-15T11:44:04.663Z,2764.00
2023-04-15T11:45:04.452Z,2755.00
2023-04-15T11:46:04.514Z,2765.00
2023-04-15T11:47:04.431Z,2766.00
2023-04-15T11:48:04.392Z,2766.00
2023-04-15T11:49:04.380Z,2766.00
2023-04-15T11:50:04.342Z,2764.00
2023-04-15T11:51:04.330Z,2753.00
2023-04-15T11:52:04.310Z,2768.00
2023-04-15T11:53:06.282Z,2750.00
2023-04-15T11:54:04.504Z,2768.00
2023-04-15T11:55:04.208Z,2768.00
2023-04-15T11:56:04.183Z,2766.00
2023-04-15T11:57:04.235Z,2761.00
2023-04-15T11:58:04.130Z,2759.00
2023-04-15T11:59:04.102Z,2742.00
2023-04-15T12:00:04.104Z,2691.00
2023-04-15T12:01:04.067Z,2727.00
2023-04-15T12:02:04.096Z,2723.00
2023-04-15T12:03:04.111Z,2742.00
2023-04-15T12:04:04.607Z,2742.00
2023-04-15T12:05:04.083Z,2749.00
2023-04-15T12:06:03.967Z,2739.00
2023-04-15T12:07:03.926Z,2743.00
2023-04-15T12:08:03.904Z,2754.00
2023-04-15T12:09:03.871Z,2742.00
2023-04-15T12:10:03.862Z,2737.00
2023-04-15T12:11:03.825Z,2739.00
2023-04-15T12:12:03.802Z,2731.00
2023-04-15T12:13:03.767Z,2720.00
2023-04-15T12:14:03.981Z,2724.00
2023-04-15T12:15:03.758Z,2725.00
2023-04-15T12:16:03.683Z,2728.00
2023-04-15T12:17:03.649Z,2730.00
2023-04-15T12:18:03.638Z,2731.00